Time;durP1;ratioP1;P1;durP2;ratioP2;P2;SDS_P1;SDS_P2;PMS_P1;PMS_P2;Temp;Humidity;BMP_temperature;BMP_pressure;BME280_temperature;BME280_humidity;BME280_pressure;Samples;Min_cycle;Max_cycle;Signal;HPM_P1;HPM_P2
2023/01/07 00:01:48;;;;;;;8.88;5.10;;;;;;;;;;5064086;28;20431;-77
2023/01/07 00:04:14;;;;;;;6.90;4.63;;;;;;;;;;5061797;28;20134;-77
2023/01/07 00:06:42;;;;;;;7.90;4.78;;;;;;;;;;5062660;28;20510;-77
2023/01/07 00:09:11;;;;;;;7.63;4.68;;;;;;;;;;5065648;28;20115;-77
2023/01/07 00:11:38;;;;;;;6.93;4.50;;;;;;;;;;5067399;28;20396;-77
2023/01/07 00:14:05;;;;;;;8.00;4.70;;;;;;;;;;5067020;28;20058;-77
2023/01/07 00:16:32;;;;;;;7.78;4.72;;;;;;;;;;5069880;28;20518;-77
2023/01/07 00:18:59;;;;;;;7.40;4.78;;;;;;;;;;5061698;28;20037;-77
2023/01/07 00:21:26;;;;;;;7.72;4.97;;;;;;;;;;5084374;28;20035;-77
2023/01/07 00:24:00;;;;;;;5.90;4.20;;;;;;;;;;5064493;28;20032;-77
2023/01/07 00:26:28;;;;;;;8.23;4.68;;;;;;;;;;5062813;28;20700;-77
2023/01/07 00:28:53;;;;;;;5.38;3.95;;;;;;;;;;5066549;28;20028;-77
2023/01/07 00:31:24;;;;;;;6.93;4.47;;;;;;;;;;5068262;28;20073;-77
2023/01/07 00:34:05;;;;;;;6.03;4.13;;;;;;;;;;5063993;28;20048;-77
2023/01/07 00:36:43;;;;;;;6.63;4.20;;;;;;;;;;5065374;28;20028;-77
2023/01/07 00:39:16;;;;;;;7.38;4.68;;;;;;;;;;5062501;28;20548;-77
2023/01/07 00:44:27;;;;;;;6.28;4.13;;;;;;;;;;5063326;28;20457;-77
2023/01/07 00:46:53;;;;;;;6.18;4.03;;;;;;;;;;5064278;28;20078;-77
2023/01/07 00:49:18;;;;;;;7.30;4.55;;;;;;;;;;5065505;28;20025;-77
2023/01/07 00:51:43;;;;;;;7.95;4.10;;;;;;;;;;5064300;28;20067;-77
2023/01/07 00:54:09;;;;;;;6.32;4.03;;;;;;;;;;5064001;28;20283;-77
2023/01/07 00:56:34;;;;;;;5.75;4.20;;;;;;;;;;5066103;28;20032;-77
2023/01/07 00:59:00;;;;;;;8.10;4.10;;;;;;;;;;5069067;28;20537;-77
2023/01/07 01:01:25;;;;;;;5.97;4.15;;;;;;;;;;5066951;28;20043;-78
2023/01/07 01:03:50;;;;;;;7.80;4.60;;;;;;;;;;5064858;28;20093;-77
2023/01/07 01:06:16;;;;;;;6.05;4.03;;;;;;;;;;5067900;28;20108;-77
2023/01/07 01:08:43;;;;;;;8.23;4.25;;;;;;;;;;5069017;28;20024;-77
2023/01/07 01:11:10;;;;;;;8.15;4.43;;;;;;;;;;5065849;28;20439;-77
2023/01/07 01:13:38;;;;;;;7.20;4.32;;;;;;;;;;5062509;28;20028;-77
2023/01/07 01:16:08;;;;;;;6.40;4.00;;;;;;;;;;5062004;28;20032;-77
2023/01/07 01:18:33;;;;;;;6.55;3.72;;;;;;;;;;5066711;28;20028;-77
2023/01/07 01:21:07;;;;;;;8.52;4.10;;;;;;;;;;5060847;28;20890;-77
2023/01/07 01:23:33;;;;;;;7.85;4.25;;;;;;;;;;5065943;28;20025;-77
2023/01/07 01:26:03;;;;;;;8.43;3.88;;;;;;;;;;5065012;28;20029;-77
2023/01/07 01:28:28;;;;;;;7.47;4.00;;;;;;;;;;5067698;28;20032;-77
2023/01/07 01:30:54;;;;;;;6.10;3.85;;;;;;;;;;5066770;28;20024;-77
2023/01/07 01:33:19;;;;;;;6.10;3.72;;;;;;;;;;5064264;28;20091;-77
2023/01/07 01:35:45;;;;;;;6.45;3.65;;;;;;;;;;5069578;28;20473;-77
2023/01/07 01:38:10;;;;;;;6.85;3.80;;;;;;;;;;5069737;28;20082;-77
2023/01/07 01:40:36;;;;;;;7.13;4.10;;;;;;;;;;5066820;28;20071;-77
2023/01/07 01:43:01;;;;;;;8.60;4.25;;;;;;;;;;5066395;28;20028;-77
2023/01/07 01:45:28;;;;;;;6.28;3.50;;;;;;;;;;5065403;28;20028;-77
2023/01/07 01:47:58;;;;;;;5.90;3.75;;;;;;;;;;5061566;28;20025;-77
2023/01/07 01:50:31;;;;;;;6.32;3.83;;;;;;;;;;5068681;28;20531;-77
2023/01/07 01:53:06;;;;;;;8.65;4.22;;;;;;;;;;5064048;28;20484;-77
2023/01/07 01:55:39;;;;;;;7.57;5.00;;;;;;;;;;5061145;28;20016;-77
2023/01/07 01:58:19;;;;;;;7.10;4.20;;;;;;;;;;5057163;28;20067;-77
2023/01/07 02:00:44;;;;;;;8.15;4.30;;;;;;;;;;5067412;28;20071;-77
2023/01/07 02:03:13;;;;;;;8.45;4.50;;;;;;;;;;5066046;28;20060;-77
2023/01/07 02:05:41;;;;;;;6.47;4.38;;;;;;;;;;5845722;22;20057;-79
2023/01/07 02:08:07;;;;;;;7.70;4.50;;;;;;;;;;4992481;28;20034;-74
2023/01/07 02:10:34;;;;;;;7.63;4.00;;;;;;;;;;4994878;28;20030;-74
2023/01/07 02:13:24;;;;;;;10.75;4.75;;;;;;;;;;5003038;28;20080;-75
2023/01/07 02:16:26;;;;;;;6.88;4.85;;;;;;;;;;4991310;28;21062;-75
2023/01/07 02:19:11;;;;;;;7.00;4.40;;;;;;;;;;4986927;28;20025;-75
2023/01/07 02:21:50;;;;;;;7.18;4.30;;;;;;;;;;4986442;28;20088;-76
2023/01/07 02:24:48;;;;;;;10.02;4.85;;;;;;;;;;4990190;28;20023;-75
2023/01/07 02:27:13;;;;;;;8.07;4.47;;;;;;;;;;4957553;28;20512;-75
2023/01/07 02:30:16;;;;;;;7.80;4.28;;;;;;;;;;4983703;28;20022;-75
2023/01/07 02:32:58;;;;;;;6.40;4.17;;;;;;;;;;4993870;28;20038;-78
2023/01/07 02:35:26;;;;;;;6.45;4.18;;;;;;;;;;4983435;28;20371;-75
2023/01/07 02:37:51;;;;;;;6.43;4.35;;;;;;;;;;4988310;28;20095;-75
2023/01/07 02:40:38;;;;;;;6.90;4.20;;;;;;;;;;4990045;28;20022;-75
2023/01/07 02:43:36;;;;;;;6.47;3.60;;;;;;;;;;4988223;28;20022;-75
2023/01/07 02:46:11;;;;;;;6.28;3.67;;;;;;;;;;4986684;28;20057;-76
2023/01/07 02:48:38;;;;;;;5.82;4.10;;;;;;;;;;4972961;28;20046;-77
2023/01/07 02:51:03;;;;;;;7.20;3.75;;;;;;;;;;5001861;28;20085;-75
2023/01/07 02:53:29;;;;;;;6.93;4.13;;;;;;;;;;4981570;28;20065;-74
2023/01/07 02:56:13;;;;;;;10.27;4.70;;;;;;;;;;4984839;28;20030;-75
2023/01/07 02:59:08;;;;;;;7.10;4.25;;;;;;;;;;4984514;28;20038;-75
2023/01/07 03:01:51;;;;;;;8.27;4.50;;;;;;;;;;4965914;28;20042;-76
2023/01/07 03:04:54;;;;;;;6.78;3.80;;;;;;;;;;4990153;28;20536;-75
2023/01/07 03:07:23;;;;;;;8.10;4.13;;;;;;;;;;4983426;28;20046;-75
2023/01/07 03:10:24;;;;;;;6.75;3.60;;;;;;;;;;4982169;28;20117;-77
2023/01/07 03:13:04;;;;;;;8.60;4.05;;;;;;;;;;4946367;28;20080;-75
2023/01/07 03:15:37;;;;;;;6.75;3.85;;;;;;;;;;4979687;28;20537;-74
2023/01/07 03:18:21;;;;;;;7.75;3.80;;;;;;;;;;4980209;28;20026;-77
2023/01/07 03:20:52;;;;;;;5.70;3.30;;;;;;;;;;4984692;28;20034;-75
2023/01/07 03:23:21;;;;;;;6.57;3.97;;;;;;;;;;4987595;28;20030;-74
2023/01/07 03:25:48;;;;;;;6.93;3.67;;;;;;;;;;4981171;28;20039;-75
2023/01/07 03:28:17;;;;;;;7.55;3.67;;;;;;;;;;4984058;28;20462;-77
2023/01/07 03:30:45;;;;;;;6.30;3.88;;;;;;;;;;4984895;28;20045;-75
2023/01/07 03:33:45;;;;;;;8.32;4.88;;;;;;;;;;4983524;28;20057;-75
2023/01/07 03:36:14;;;;;;;9.40;4.57;;;;;;;;;;4983252;28;20126;-75
2023/01/07 03:38:42;;;;;;;10.65;4.70;;;;;;;;;;4964065;28;20043;-77
2023/01/07 03:41:07;;;;;;;6.90;4.10;;;;;;;;;;4989257;28;20022;-76
2023/01/07 03:43:33;;;;;;;6.90;3.70;;;;;;;;;;4985360;28;20030;-76
2023/01/07 03:45:58;;;;;;;6.43;3.47;;;;;;;;;;4969271;28;20036;-74
2023/01/07 03:48:24;;;;;;;5.30;3.55;;;;;;;;;;4981216;28;20033;-75
2023/01/07 03:50:49;;;;;;;7.68;3.55;;;;;;;;;;4989837;28;20052;-74
2023/01/07 03:53:15;;;;;;;5.25;3.30;;;;;;;;;;4982464;28;20513;-74
2023/01/07 03:55:40;;;;;;;5.93;2.97;;;;;;;;;;4964305;28;20085;-75
2023/01/07 03:58:05;;;;;;;4.70;3.10;;;;;;;;;;4981992;28;20022;-75
2023/01/07 04:00:31;;;;;;;5.68;3.22;;;;;;;;;;4983195;28;20026;-74
2023/01/07 04:02:56;;;;;;;5.15;3.25;;;;;;;;;;4965922;28;20452;-74
2023/01/07 04:05:22;;;;;;;6.05;3.20;;;;;;;;;;4969871;28;20493;-75
2023/01/07 04:07:47;;;;;;;6.20;3.28;;;;;;;;;;4978875;28;20042;-75
2023/01/07 04:10:13;;;;;;;5.30;3.00;;;;;;;;;;4963108;28;20034;-75
2023/01/07 04:12:38;;;;;;;5.40;2.70;;;;;;;;;;4985949;28;20037;-74
2023/01/07 04:15:04;;;;;;;6.25;3.17;;;;;;;;;;4963006;28;20037;-78
2023/01/07 04:17:29;;;;;;;8.95;3.33;;;;;;;;;;4964414;28;20207;-75
2023/01/07 04:19:55;;;;;;;4.20;2.85;;;;;;;;;;4980320;28;20030;-74
2023/01/07 04:22:20;;;;;;;7.13;3.03;;;;;;;;;;4962300;28;20026;-74
2023/01/07 04:24:45;;;;;;;4.30;2.40;;;;;;;;;;4982606;28;20049;-75
2023/01/07 04:27:11;;;;;;;4.28;2.80;;;;;;;;;;4989401;28;20038;-74
2023/01/07 04:29:36;;;;;;;6.38;2.80;;;;;;;;;;4967464;28;20031;-76
2023/01/07 04:32:02;;;;;;;3.90;2.50;;;;;;;;;;4967147;28;20022;-77
2023/01/07 04:34:27;;;;;;;4.38;2.58;;;;;;;;;;4963881;28;20022;-75
2023/01/07 04:36:53;;;;;;;4.75;2.90;;;;;;;;;;4981634;28;20486;-75
2023/01/07 04:39:18;;;;;;;5.85;2.45;;;;;;;;;;4984445;28;20486;-74
2023/01/07 04:41:43;;;;;;;5.50;2.80;;;;;;;;;;4973008;28;20031;-75
2023/01/07 04:44:09;;;;;;;4.43;2.60;;;;;;;;;;4979540;28;20044;-77
2023/01/07 04:46:34;;;;;;;5.03;2.60;;;;;;;;;;4964016;28;20092;-75
2023/01/07 04:49:00;;;;;;;4.18;2.47;;;;;;;;;;4982657;28;20516;-74
2023/01/07 04:51:25;;;;;;;4.13;2.50;;;;;;;;;;4960929;28;20537;-74
2023/01/07 04:53:51;;;;;;;4.53;2.53;;;;;;;;;;4961364;28;20030;-75
2023/01/07 04:56:16;;;;;;;5.03;2.95;;;;;;;;;;4979981;28;20457;-74
2023/01/07 04:58:42;;;;;;;3.90;2.40;;;;;;;;;;4977294;28;20026;-75
2023/01/07 05:01:08;;;;;;;3.65;2.30;;;;;;;;;;4962655;28;20417;-75
2023/01/07 05:03:33;;;;;;;5.45;2.40;;;;;;;;;;4966468;28;20038;-75
2023/01/07 05:05:59;;;;;;;4.05;2.38;;;;;;;;;;4962308;28;20133;-77
2023/01/07 05:08:25;;;;;;;5.35;2.50;;;;;;;;;;4965330;28;20464;-75
2023/01/07 05:10:51;;;;;;;3.92;2.33;;;;;;;;;;4967756;28;20038;-75
2023/01/07 05:13:18;;;;;;;5.30;2.50;;;;;;;;;;4972112;28;20026;-77
2023/01/07 05:15:44;;;;;;;3.92;2.28;;;;;;;;;;4963898;28;20478;-77
2023/01/07 05:18:09;;;;;;;4.38;2.47;;;;;;;;;;4989251;28;20072;-75
2023/01/07 05:20:35;;;;;;;5.10;2.35;;;;;;;;;;4982500;28;20031;-74
2023/01/07 05:23:00;;;;;;;4.18;1.95;;;;;;;;;;4979364;28;20034;-75
2023/01/07 05:25:26;;;;;;;5.72;2.40;;;;;;;;;;4980198;28;20049;-75
2023/01/07 05:27:51;;;;;;;5.65;2.22;;;;;;;;;;4979713;28;20038;-76
2023/01/07 05:30:16;;;;;;;6.65;2.58;;;;;;;;;;4962294;28;20029;-77
2023/01/07 05:32:42;;;;;;;4.47;2.05;;;;;;;;;;4964195;28;20573;-75
2023/01/07 05:35:07;;;;;;;4.25;2.42;;;;;;;;;;4978556;28;20084;-75
2023/01/07 05:37:33;;;;;;;5.63;2.25;;;;;;;;;;4978741;28;20034;-74
2023/01/07 05:39:58;;;;;;;3.75;2.05;;;;;;;;;;4979410;28;20031;-76
2023/01/07 05:42:24;;;;;;;4.93;2.08;;;;;;;;;;4980308;28;20030;-75
2023/01/07 05:44:49;;;;;;;4.63;2.15;;;;;;;;;;4980294;28;20037;-74
2023/01/07 05:47:14;;;;;;;3.40;2.20;;;;;;;;;;4968893;28;20034;-74
2023/01/07 05:49:40;;;;;;;5.32;2.17;;;;;;;;;;4981724;28;20448;-76
2023/01/07 05:52:05;;;;;;;3.80;2.10;;;;;;;;;;4959920;28;20084;-76
2023/01/07 05:54:31;;;;;;;3.60;2.00;;;;;;;;;;4979547;28;20085;-75
2023/01/07 05:56:56;;;;;;;3.63;1.90;;;;;;;;;;4980514;28;20038;-76
2023/01/07 05:59:21;;;;;;;3.53;1.80;;;;;;;;;;4980529;28;20454;-76
2023/01/07 06:01:47;;;;;;;4.43;2.08;;;;;;;;;;4958875;28;20054;-75
2023/01/07 06:04:12;;;;;;;3.47;1.90;;;;;;;;;;4979137;28;20128;-74
2023/01/07 06:06:38;;;;;;;3.25;1.90;;;;;;;;;;4966029;28;20399;-74
2023/01/07 06:09:03;;;;;;;3.60;2.10;;;;;;;;;;4984319;28;20069;-74
2023/01/07 06:11:29;;;;;;;4.75;2.10;;;;;;;;;;4978441;28;20173;-75
2023/01/07 06:13:54;;;;;;;3.00;1.75;;;;;;;;;;4982278;28;20019;-74
2023/01/07 06:16:20;;;;;;;4.30;1.90;;;;;;;;;;4975182;28;20038;-77
2023/01/07 06:18:45;;;;;;;5.97;2.10;;;;;;;;;;4978592;28;20039;-77
2023/01/07 06:21:10;;;;;;;4.53;2.10;;;;;;;;;;4977639;28;20100;-75
2023/01/07 06:23:36;;;;;;;3.22;1.60;;;;;;;;;;4980290;28;20045;-74
2023/01/07 06:26:02;;;;;;;5.80;1.88;;;;;;;;;;4979680;28;20041;-76
2023/01/07 06:28:28;;;;;;;4.28;1.95;;;;;;;;;;4968276;28;20117;-75
2023/01/07 06:30:53;;;;;;;3.53;1.65;;;;;;;;;;4963654;28;20030;-75
2023/01/07 06:33:19;;;;;;;3.47;2.13;;;;;;;;;;4963188;28;20393;-74
2023/01/07 06:35:44;;;;;;;4.47;1.60;;;;;;;;;;4982368;28;20030;-76
2023/01/07 06:38:10;;;;;;;3.90;1.55;;;;;;;;;;4980014;28;20490;-75
2023/01/07 06:40:36;;;;;;;4.55;1.40;;;;;;;;;;4981974;28;20065;-75
2023/01/07 06:43:02;;;;;;;2.97;1.55;;;;;;;;;;4965067;28;20253;-74
2023/01/07 06:45:28;;;;;;;4.28;1.88;;;;;;;;;;4989652;28;20449;-75
2023/01/07 06:47:56;;;;;;;4.45;1.73;;;;;;;;;;4989814;28;20030;-75
2023/01/07 06:50:21;;;;;;;3.33;1.25;;;;;;;;;;4965936;28;20133;-75
2023/01/07 06:52:47;;;;;;;2.85;1.38;;;;;;;;;;4984648;28;20735;-75
2023/01/07 06:55:12;;;;;;;2.08;1.50;;;;;;;;;;4983658;28;20434;-75
2023/01/07 06:57:38;;;;;;;2.50;1.50;;;;;;;;;;4984450;28;20541;-74
2023/01/07 07:00:03;;;;;;;2.95;1.38;;;;;;;;;;4980619;28;20053;-76
2023/01/07 07:02:29;;;;;;;2.53;1.40;;;;;;;;;;4967456;28;20683;-75
2023/01/07 07:04:54;;;;;;;2.35;1.20;;;;;;;;;;4988386;28;20057;-74
2023/01/07 07:07:20;;;;;;;3.63;1.80;;;;;;;;;;4963550;28;20054;-75
2023/01/07 07:09:47;;;;;;;2.58;1.45;;;;;;;;;;4980891;28;20034;-75
2023/01/07 07:12:13;;;;;;;2.75;1.20;;;;;;;;;;4978393;28;20065;-77
2023/01/07 07:14:39;;;;;;;3.15;1.20;;;;;;;;;;4985999;28;20030;-75
2023/01/07 07:17:04;;;;;;;3.08;1.27;;;;;;;;;;4979742;28;20666;-75
2023/01/07 07:19:29;;;;;;;2.05;1.25;;;;;;;;;;4982407;28;20030;-76
2023/01/07 07:21:55;;;;;;;2.90;1.17;;;;;;;;;;4988189;28;20036;-76
2023/01/07 07:24:21;;;;;;;2.10;1.30;;;;;;;;;;4980701;28;20061;-76
2023/01/07 07:26:46;;;;;;;2.05;1.20;;;;;;;;;;4968361;28;20030;-75
2023/01/07 07:29:12;;;;;;;3.08;1.20;;;;;;;;;;4960951;28;20118;-76
2023/01/07 07:31:37;;;;;;;1.90;1.05;;;;;;;;;;4963992;28;20130;-77
2023/01/07 07:34:03;;;;;;;3.65;1.23;;;;;;;;;;4987112;28;20034;-75
2023/01/07 07:36:29;;;;;;;2.08;1.10;;;;;;;;;;4988169;28;20106;-75
2023/01/07 07:38:54;;;;;;;2.97;1.30;;;;;;;;;;4964537;28;20042;-75
2023/01/07 07:41:20;;;;;;;1.98;1.20;;;;;;;;;;4984863;28;20022;-75
2023/01/07 07:43:45;;;;;;;2.70;1.23;;;;;;;;;;4987126;28;20138;-76
2023/01/07 07:46:10;;;;;;;2.92;1.17;;;;;;;;;;4983674;28;20030;-75
2023/01/07 07:48:36;;;;;;;2.50;1.20;;;;;;;;;;4982658;28;20385;-75
2023/01/07 07:51:01;;;;;;;3.38;1.30;;;;;;;;;;4985053;28;20034;-75
2023/01/07 07:53:27;;;;;;;1.40;1.02;;;;;;;;;;4975057;28;20116;-75
2023/01/07 07:55:52;;;;;;;2.15;1.20;;;;;;;;;;4985660;28;20018;-74
2023/01/07 07:58:18;;;;;;;2.05;1.10;;;;;;;;;;4985271;28;20393;-75
2023/01/07 08:00:43;;;;;;;2.28;1.13;;;;;;;;;;4982405;28;20121;-75
2023/01/07 08:03:09;;;;;;;2.70;1.40;;;;;;;;;;4979917;28;20034;-75
2023/01/07 08:05:35;;;;;;;3.55;1.23;;;;;;;;;;4964220;28;20597;-75
2023/01/07 08:08:00;;;;;;;2.83;1.23;;;;;;;;;;4961040;28;20524;-77
2023/01/07 08:10:27;;;;;;;3.40;1.30;;;;;;;;;;4983595;28;20438;-75
2023/01/07 08:12:52;;;;;;;1.83;0.93;;;;;;;;;;4986515;28;20105;-74
2023/01/07 08:15:18;;;;;;;2.05;1.23;;;;;;;;;;4969714;28;20113;-75
2023/01/07 08:17:43;;;;;;;1.52;0.88;;;;;;;;;;4991213;28;20038;-75
2023/01/07 08:20:09;;;;;;;2.42;1.10;;;;;;;;;;4971549;28;20030;-75
2023/01/07 08:22:35;;;;;;;2.53;1.20;;;;;;;;;;4966096;28;20390;-75
2023/01/07 08:25:00;;;;;;;2.60;1.30;;;;;;;;;;4990676;28;20030;-76
2023/01/07 08:27:26;;;;;;;1.77;1.00;;;;;;;;;;4976544;28;20038;-75
2023/01/07 08:29:52;;;;;;;2.15;1.30;;;;;;;;;;4989827;28;20332;-75
2023/01/07 08:32:18;;;;;;;2.65;1.27;;;;;;;;;;4992589;28;20034;-75
2023/01/07 08:34:44;;;;;;;2.28;1.10;;;;;;;;;;4991884;28;20042;-75
2023/01/07 08:37:09;;;;;;;2.65;1.10;;;;;;;;;;4989145;28;20042;-75
2023/01/07 08:39:35;;;;;;;2.00;0.90;;;;;;;;;;4980121;28;20030;-77
2023/01/07 08:42:00;;;;;;;2.88;1.30;;;;;;;;;;4982112;28;20437;-75
2023/01/07 08:44:26;;;;;;;1.75;1.00;;;;;;;;;;4991784;28;20029;-75
2023/01/07 08:46:52;;;;;;;1.55;1.15;;;;;;;;;;4971280;28;20485;-75
2023/01/07 08:49:17;;;;;;;2.53;1.30;;;;;;;;;;4971205;28;20482;-74
2023/01/07 08:51:43;;;;;;;2.60;1.30;;;;;;;;;;4972040;28;20038;-75
2023/01/07 08:54:08;;;;;;;2.30;1.15;;;;;;;;;;4971185;28;20034;-74
2023/01/07 08:56:33;;;;;;;3.53;1.20;;;;;;;;;;4956748;28;20309;-76
2023/01/07 08:58:59;;;;;;;2.30;1.10;;;;;;;;;;4973058;28;20022;-75
2023/01/07 09:01:24;;;;;;;1.67;1.05;;;;;;;;;;4987573;28;20030;-75
2023/01/07 09:03:50;;;;;;;1.65;1.10;;;;;;;;;;4974210;28;20121;-75
2023/01/07 09:06:15;;;;;;;3.47;1.25;;;;;;;;;;4968133;28;20128;-75
2023/01/07 09:08:41;;;;;;;2.13;1.20;;;;;;;;;;4989076;28;20035;-75
2023/01/07 09:11:06;;;;;;;2.65;1.25;;;;;;;;;;4990189;28;20022;-77
2023/01/07 09:13:32;;;;;;;2.15;1.02;;;;;;;;;;4991619;28;20121;-75
2023/01/07 09:15:58;;;;;;;5.18;1.13;;;;;;;;;;4970626;28;20058;-75
2023/01/07 09:18:24;;;;;;;1.50;0.90;;;;;;;;;;4969099;28;20030;-79
2023/01/07 09:20:49;;;;;;;2.08;1.10;;;;;;;;;;4966216;28;20031;-75
2023/01/07 09:23:14;;;;;;;2.15;1.00;;;;;;;;;;4971326;28;20113;-75
2023/01/07 09:25:41;;;;;;;1.80;1.00;;;;;;;;;;4970390;28;20034;-75
2023/01/07 09:28:06;;;;;;;2.60;0.90;;;;;;;;;;4982501;28;20038;-75
2023/01/07 09:30:32;;;;;;;2.88;1.30;;;;;;;;;;4987666;28;20034;-75
2023/01/07 09:32:57;;;;;;;4.05;1.20;;;;;;;;;;4985799;28;20023;-75
2023/01/07 09:35:22;;;;;;;1.98;1.10;;;;;;;;;;4968996;28;20469;-75
2023/01/07 09:37:48;;;;;;;2.55;1.13;;;;;;;;;;4969876;28;20030;-74
2023/01/07 09:40:23;;;;;;;2.45;1.13;;;;;;;;;;4972941;28;20060;-74
2023/01/07 09:43:14;;;;;;;2.53;1.10;;;;;;;;;;4971402;28;20022;-75
2023/01/07 09:45:45;;;;;;;2.05;1.00;;;;;;;;;;4986131;28;20034;-76
2023/01/07 09:48:22;;;;;;;2.00;1.10;;;;;;;;;;4970294;28;20504;-75
2023/01/07 09:50:58;;;;;;;2.13;1.10;;;;;;;;;;4987426;28;20038;-75
2023/01/07 09:53:34;;;;;;;1.83;1.08;;;;;;;;;;4982567;28;20513;-75
2023/01/07 09:56:04;;;;;;;2.25;1.17;;;;;;;;;;4972059;28;20033;-75
2023/01/07 09:58:30;;;;;;;2.53;1.33;;;;;;;;;;4983218;28;20026;-75
2023/01/07 10:01:22;;;;;;;2.58;1.33;;;;;;;;;;4990451;28;20034;-77
2023/01/07 10:04:17;;;;;;;1.92;1.30;;;;;;;;;;4979829;28;20402;-75
2023/01/07 10:07:03;;;;;;;3.08;1.38;;;;;;;;;;4988648;28;20046;-75
2023/01/07 10:09:38;;;;;;;2.13;1.25;;;;;;;;;;4979230;28;20120;-74
2023/01/07 10:12:15;;;;;;;2.30;1.30;;;;;;;;;;4974226;28;20022;-75
2023/01/07 10:15:13;;;;;;;2.63;1.27;;;;;;;;;;4970027;28;20030;-75
2023/01/07 10:18:07;;;;;;;3.00;1.20;;;;;;;;;;4951278;28;20518;-74
2023/01/07 10:20:49;;;;;;;2.72;1.20;;;;;;;;;;4986831;28;20030;-74
2023/01/07 10:23:20;;;;;;;2.28;1.13;;;;;;;;;;4972835;28;20038;-75
2023/01/07 10:25:49;;;;;;;2.92;1.15;;;;;;;;;;4972065;28;20113;-76
2023/01/07 10:28:28;;;;;;;2.63;1.00;;;;;;;;;;4972233;28;20109;-75
2023/01/07 10:30:54;;;;;;;2.42;1.20;;;;;;;;;;4990643;28;20042;-75
2023/01/07 10:33:27;;;;;;;1.92;1.13;;;;;;;;;;4992901;28;20379;-76
2023/01/07 10:36:08;;;;;;;1.77;1.08;;;;;;;;;;4987303;28;20026;-76
2023/01/07 10:38:39;;;;;;;1.45;1.00;;;;;;;;;;4991225;28;20057;-75
2023/01/07 10:41:23;;;;;;;2.35;1.00;;;;;;;;;;4973804;28;20092;-74
2023/01/07 10:44:30;;;;;;;2.50;1.13;;;;;;;;;;4998674;28;20022;-75
2023/01/07 10:47:24;;;;;;;1.85;0.85;;;;;;;;;;4977522;28;20402;-75
2023/01/07 10:50:13;;;;;;;2.97;1.00;;;;;;;;;;4943958;28;20043;-78
2023/01/07 10:52:54;;;;;;;1.92;0.93;;;;;;;;;;4952603;28;21621;-75
2023/01/07 10:55:50;;;;;;;1.88;0.80;;;;;;;;;;4968530;28;20033;-74
2023/01/07 10:58:16;;;;;;;2.15;1.17;;;;;;;;;;4986710;28;20030;-75
2023/01/07 11:00:45;;;;;;;1.50;0.85;;;;;;;;;;4980308;28;20042;-76
2023/01/07 11:03:22;;;;;;;3.83;1.10;;;;;;;;;;4986084;28;20026;-77
2023/01/07 11:05:58;;;;;;;1.58;0.80;;;;;;;;;;4982037;28;20050;-75
2023/01/07 11:08:35;;;;;;;2.10;1.00;;;;;;;;;;4982636;28;20049;-76
2023/01/07 11:11:02;;;;;;;3.25;0.95;;;;;;;;;;4986539;28;20041;-75
2023/01/07 11:13:34;;;;;;;1.70;0.90;;;;;;;;;;4988013;28;20014;-75
2023/01/07 11:16:09;;;;;;;1.17;0.80;;;;;;;;;;4982136;28;20385;-75
2023/01/07 11:18:57;;;;;;;3.25;0.73;;;;;;;;;;4950052;28;20049;-76
2023/01/07 11:21:35;;;;;;;2.45;1.10;;;;;;;;;;4974693;28;20030;-77
2023/01/07 11:24:01;;;;;;;4.70;0.98;;;;;;;;;;4974277;28;20177;-76
2023/01/07 11:26:33;;;;;;;1.30;0.80;;;;;;;;;;4966117;28;20027;-75
2023/01/07 11:29:24;;;;;;;1.52;0.80;;;;;;;;;;4979565;28;20038;-76
2023/01/07 11:31:58;;;;;;;2.15;1.10;;;;;;;;;;4953149;28;20463;-78
2023/01/07 11:34:36;;;;;;;2.97;1.40;;;;;;;;;;4968479;28;20042;-79
2023/01/07 11:37:03;;;;;;;1.27;0.90;;;;;;;;;;4976862;28;20460;-77
2023/01/07 11:39:31;;;;;;;1.88;0.70;;;;;;;;;;4955919;28;20033;-76
2023/01/07 11:41:58;;;;;;;1.27;0.75;;;;;;;;;;4962770;28;20038;-76
2023/01/07 11:44:24;;;;;;;1.48;0.80;;;;;;;;;;4962110;28;20040;-75
2023/01/07 11:46:50;;;;;;;2.15;0.93;;;;;;;;;;4985513;28;20474;-75
2023/01/07 11:49:29;;;;;;;1.75;0.90;;;;;;;;;;4992064;28;20030;-74
2023/01/07 11:51:55;;;;;;;2.33;1.10;;;;;;;;;;4986101;28;20120;-75
2023/01/07 11:54:23;;;;;;;3.00;1.02;;;;;;;;;;4973022;28;20490;-75
2023/01/07 11:56:49;;;;;;;1.63;1.02;;;;;;;;;;4969665;28;20422;-76
2023/01/07 11:59:18;;;;;;;1.98;0.85;;;;;;;;;;4976932;28;20073;-74
2023/01/07 12:01:49;;;;;;;1.95;0.95;;;;;;;;;;4979868;28;20141;-75
2023/01/07 12:04:32;;;;;;;1.83;1.00;;;;;;;;;;4968737;28;20398;-76
2023/01/07 12:07:11;;;;;;;1.13;0.82;;;;;;;;;;4985142;28;20117;-76
2023/01/07 12:09:39;;;;;;;2.80;0.90;;;;;;;;;;4971698;28;20486;-75
2023/01/07 12:12:30;;;;;;;2.95;0.70;;;;;;;;;;4969108;28;20022;-75
2023/01/07 12:14:53;;;;;;;1.85;0.98;;;;;;;;;;4990069;28;20590;-75
2023/01/07 12:17:23;;;;;;;2.13;1.05;;;;;;;;;;4986780;28;20030;-76
2023/01/07 12:20:11;;;;;;;2.42;1.10;;;;;;;;;;4987193;28;20072;-75
2023/01/07 12:23:12;;;;;;;1.88;1.15;;;;;;;;;;4982105;28;20073;-76
2023/01/07 12:25:49;;;;;;;2.53;1.10;;;;;;;;;;4972686;28;20031;-75
2023/01/07 12:28:39;;;;;;;2.47;1.10;;;;;;;;;;4951328;28;20053;-78
2023/01/07 12:31:27;;;;;;;2.17;1.20;;;;;;;;;;4983002;28;20061;-78
2023/01/07 12:34:02;;;;;;;1.70;0.98;;;;;;;;;;4971276;28;20165;-76
2023/01/07 12:36:41;;;;;;;1.50;0.93;;;;;;;;;;4968705;28;20030;-75
2023/01/07 12:39:15;;;;;;;2.08;1.10;;;;;;;;;;4980478;28;20069;-76
2023/01/07 12:41:46;;;;;;;2.10;1.00;;;;;;;;;;4978535;28;20093;-75
2023/01/07 12:44:20;;;;;;;1.77;0.90;;;;;;;;;;4979989;28;20065;-78
2023/01/07 12:47:05;;;;;;;1.60;1.17;;;;;;;;;;4981442;28;20040;-78
2023/01/07 12:49:36;;;;;;;2.45;1.20;;;;;;;;;;4958885;28;20026;-76
2023/01/07 12:52:11;;;;;;;2.13;1.10;;;;;;;;;;4976377;28;20034;-76
2023/01/07 12:54:50;;;;;;;1.88;1.10;;;;;;;;;;4953474;28;20030;-77
2023/01/07 12:57:20;;;;;;;2.38;1.20;;;;;;;;;;4952783;28;20041;-75
2023/01/07 12:59:52;;;;;;;2.80;1.30;;;;;;;;;;4978014;28;20158;-77
2023/01/07 13:02:28;;;;;;;2.15;1.20;;;;;;;;;;4956966;28;20041;-76
2023/01/07 13:05:12;;;;;;;2.92;1.20;;;;;;;;;;4964994;28;20521;-75
2023/01/07 13:07:41;;;;;;;2.13;1.20;;;;;;;;;;4968410;28;20270;-78
2023/01/07 13:10:19;;;;;;;2.78;1.30;;;;;;;;;;4969104;28;20572;-78
2023/01/07 13:12:47;;;;;;;2.38;1.10;;;;;;;;;;4971238;28;20040;-78
2023/01/07 13:15:27;;;;;;;2.35;1.13;;;;;;;;;;4972914;28;20040;-76
2023/01/07 13:17:55;;;;;;;2.35;1.40;;;;;;;;;;4973160;28;20027;-76
2023/01/07 13:20:48;;;;;;;2.10;1.20;;;;;;;;;;4973029;28;20041;-75
2023/01/07 13:23:39;;;;;;;2.97;1.25;;;;;;;;;;4959899;28;20031;-78
2023/01/07 13:26:16;;;;;;;4.28;1.27;;;;;;;;;;4969361;28;20125;-78
2023/01/07 13:28:58;;;;;;;2.35;1.17;;;;;;;;;;4974916;28;20733;-75
2023/01/07 13:31:54;;;;;;;4.10;1.50;;;;;;;;;;4981031;28;20030;-78
2023/01/07 13:34:44;;;;;;;2.38;1.17;;;;;;;;;;4958377;28;20030;-76
2023/01/07 13:38:10;;;;;;;2.15;1.20;;;;;;;;;;4952606;28;20042;-75
2023/01/07 13:41:06;;;;;;;2.90;1.60;;;;;;;;;;4885262;29;20040;-75
2023/01/07 13:43:53;;;;;;;3.63;1.30;;;;;;;;;;4905675;29;20040;-76
2023/01/07 13:46:23;;;;;;;2.75;1.52;;;;;;;;;;4959825;28;20502;-75
2023/01/07 13:48:50;;;;;;;3.30;1.80;;;;;;;;;;4979485;28;20148;-75
2023/01/07 13:51:28;;;;;;;3.95;1.85;;;;;;;;;;4975822;28;20547;-77
2023/01/07 13:53:54;;;;;;;3.63;2.20;;;;;;;;;;4975756;28;20140;-78
2023/01/07 13:56:19;;;;;;;2.65;1.48;;;;;;;;;;4949988;28;20152;-76
2023/01/07 13:58:52;;;;;;;3.50;2.03;;;;;;;;;;4976645;28;20034;-75
2023/01/07 14:01:20;;;;;;;2.72;1.67;;;;;;;;;;4956736;28;20104;-77
2023/01/07 14:03:53;;;;;;;2.92;1.60;;;;;;;;;;4979786;28;20042;-76
2023/01/07 14:06:18;;;;;;;;;;;;;;;;;;4970201;28;20026;-77
2023/01/07 14:09:09;;;;;;;3.10;1.50;;;;;;;;;;4970185;28;20234;-76
2023/01/07 14:11:35;;;;;;;2.60;1.60;;;;;;;;;;4972143;28;20502;-76
2023/01/07 14:14:26;;;;;;;2.42;1.40;;;;;;;;;;4974592;28;20030;-75
2023/01/07 14:17:16;;;;;;;4.47;1.50;;;;;;;;;;4978252;28;20513;-75
2023/01/07 14:19:47;;;;;;;2.60;1.40;;;;;;;;;;4961468;28;20093;-75
2023/01/07 14:22:30;;;;;;;2.60;1.60;;;;;;;;;;4961740;28;20070;-75
2023/01/07 14:25:14;;;;;;;3.30;1.67;;;;;;;;;;4976571;28;20045;-77
2023/01/07 14:27:59;;;;;;;2.70;1.45;;;;;;;;;;4963383;28;20059;-76
2023/01/07 14:30:33;;;;;;;2.15;1.45;;;;;;;;;;4978823;28;20508;-76
2023/01/07 14:33:02;;;;;;;3.15;1.70;;;;;;;;;;4974501;28;20053;-76
2023/01/07 14:35:40;;;;;;;4.22;2.15;;;;;;;;;;4982649;28;20524;-76
2023/01/07 14:41:09;;;;;;;3.97;1.83;;;;;;;;;;5139551;23;20057;-78
2023/01/07 14:43:46;;;;;;;2.55;1.35;;;;;;;;;;5004233;28;20293;-80
2023/01/07 14:46:21;;;;;;;3.17;1.80;;;;;;;;;;5005060;28;20289;-81
2023/01/07 14:49:12;;;;;;;4.68;1.83;;;;;;;;;;5005561;28;20048;-79
2023/01/07 14:52:04;;;;;;;3.00;1.73;;;;;;;;;;4977076;28;21202;-80
2023/01/07 14:54:46;;;;;;;2.85;1.70;;;;;;;;;;5009776;28;20025;-80
2023/01/07 14:57:30;;;;;;;3.05;1.70;;;;;;;;;;5014136;28;20044;-82
2023/01/07 15:00:23;;;;;;;2.20;1.50;;;;;;;;;;5008849;28;20030;-78
2023/01/07 15:03:01;;;;;;;3.10;1.65;;;;;;;;;;5011324;28;20110;-80
2023/01/07 15:05:30;;;;;;;4.05;1.90;;;;;;;;;;5014578;28;20034;-80
2023/01/07 15:16:22;;;;;;;3.50;1.90;;;;;;;;;;5019376;28;20031;-81
2023/01/07 15:18:51;;;;;;;3.30;1.83;;;;;;;;;;5019168;28;20037;-81
2023/01/07 15:21:28;;;;;;;3.20;1.60;;;;;;;;;;5018253;28;21004;-79
2023/01/07 15:24:02;;;;;;;3.42;1.70;;;;;;;;;;5012992;28;20026;-81